バルセロナ の空港の天気 - METARとTAF

バルセロナ・エル・プラット国際空港 ( LEBL / BCN ) - スペイン バルセロナ
飛行場実況気象(Metar)
観測時間06/21 06:00 CEST (06/21 04:00 UTC)
風向・風速北西 4m/s
視程10km以上
天気現象
なし
気温21℃
湿度64%
気圧1017hPa
METARLEBL 210400Z 32008KT CAVOK 21/14 Q1017 NOSIG
過去の天気等 Google飛行場航空写真 Wunderground天気予報

過去48時間のMETAR

飛行場予報(TAF)
発表時間: 6/21 01:00 CEST (6/20 23:00 UTC)
予報対象時間: 21日2時 CEST ~ 22日2時 CEST
風向・風速不定 2m/s
視程10km以上
なし
21日10時 CEST ~ 21日12時 CEST に徐々に
風向・風速南南西 5m/s
21日21時 CEST ~ 22日2時 CEST に一時的に
風向・風速不定 2m/s
TAF LEBL 202300Z 2100/2124 VRB03KT CAVOK TX29/2112Z TN20/2106Z
BECMG 2108/2110 21010KT
TEMPO 2119/2124 VRB03KT